Time;durP1;ratioP1;P1;durP2;ratioP2;P2;SDS_P1;SDS_P2;PMS_P1;PMS_P2;Temp;Humidity;BMP_temperature;BMP_pressure;BME280_temperature;BME280_humidity;BME280_pressure;Samples;Min_cycle;Max_cycle;Signal;HPM_P1;HPM_P2
2023/01/10 00:02:01;;;;;;;;;2.75;2.50;;;;;;;;5082728;28;62583;-80
2023/01/10 00:04:28;;;;;;;;;4.50;1.75;;;;;;;;5083014;27;61886;-80
2023/01/10 00:06:54;;;;;;;;;2.00;2.00;;;;;;;;5083593;27;61789;-79
2023/01/10 00:09:19;;;;;;;;;5.00;1.00;;;;;;;;5081982;28;62357;-79
2023/01/10 00:14:28;;;;;;;;;6.75;1.00;;;;;;;;5083234;28;61773;-79
2023/01/10 00:16:54;;;;;;;;;5.50;0.00;;;;;;;;5082064;28;61744;-79
2023/01/10 00:19:19;;;;;;;;;1.00;0.00;;;;;;;;5083163;27;62020;-79
2023/01/10 00:21:44;;;;;;;;;0.00;0.00;;;;;;;;5081207;28;65105;-80
2023/01/10 00:24:21;;;;;;;;;2.25;0.75;;;;;;;;5082896;28;61783;-79
2023/01/10 00:26:49;;;;;;;;;1.00;1.00;;;;;;;;5082881;27;61756;-79
2023/01/10 00:29:15;;;;;;;;;3.00;1.50;;;;;;;;5081707;28;61725;-79
2023/01/10 00:31:40;;;;;;;;;1.50;1.25;;;;;;;;5082107;27;62729;-80
2023/01/10 00:34:06;;;;;;;;;1.25;0.00;;;;;;;;5081427;28;61791;-80
2023/01/10 00:36:32;;;;;;;;;4.25;1.00;;;;;;;;5081377;28;61705;-80
2023/01/10 00:38:57;;;;;;;;;5.75;1.00;;;;;;;;5082946;28;62009;-80
2023/01/10 00:44:07;;;;;;;;;0.75;0.25;;;;;;;;5082638;28;61849;-80
2023/01/10 00:46:33;;;;;;;;;2.50;1.00;;;;;;;;5082602;28;61797;-79
2023/01/10 00:48:58;;;;;;;;;5.50;1.50;;;;;;;;5082607;27;61671;-79
2023/01/10 00:51:24;;;;;;;;;2.75;2.00;;;;;;;;5082013;27;61902;-79
2023/01/10 00:53:49;;;;;;;;;1.00;0.00;;;;;;;;5082612;28;62155;-79
2023/01/10 00:56:14;;;;;;;;;0.75;0.75;;;;;;;;5082567;28;61710;-79
2023/01/10 00:58:40;;;;;;;;;5.00;0.75;;;;;;;;5082609;27;61695;-79
2023/01/10 01:01:05;;;;;;;;;1.00;0.50;;;;;;;;5082066;28;62610;-80
2023/01/10 01:03:30;;;;;;;;;2.50;1.00;;;;;;;;5081412;28;61816;-80
2023/01/10 01:05:55;;;;;;;;;5.00;0.50;;;;;;;;5082930;28;61861;-80
2023/01/10 01:08:21;;;;;;;;;4.50;1.00;;;;;;;;5081402;28;62298;-80
2023/01/10 01:10:46;;;;;;;;;0.50;0.50;;;;;;;;5081272;28;62560;-80
2023/01/10 01:13:13;;;;;;;;;2.00;2.00;;;;;;;;5082471;28;61892;-80
2023/01/10 01:15:38;;;;;;;;;0.75;0.00;;;;;;;;5083743;28;61886;-80
2023/01/10 01:18:04;;;;;;;;;2.75;0.25;;;;;;;;5084940;28;62017;-79
2023/01/10 01:20:30;;;;;;;;;3.00;0.00;;;;;;;;5085170;28;62777;-80
2023/01/10 01:22:55;;;;;;;;;6.75;1.00;;;;;;;;5086009;27;61877;-80
2023/01/10 01:25:20;;;;;;;;;1.75;1.75;;;;;;;;5084075;27;61974;-80
2023/01/10 01:27:45;;;;;;;;;2.75;0.00;;;;;;;;5084365;28;62022;-80
2023/01/10 01:30:11;;;;;;;;;2.50;1.50;;;;;;;;5083639;28;63862;-80
2023/01/10 01:32:37;;;;;;;;;3.50;1.25;;;;;;;;5084195;28;61755;-80
2023/01/10 01:35:02;;;;;;;;;0.75;0.50;;;;;;;;5085834;27;61762;-80
2023/01/10 01:37:27;;;;;;;;;4.00;1.25;;;;;;;;5085738;27;62007;-80
2023/01/10 01:39:53;;;;;;;;;3.50;1.00;;;;;;;;5084837;28;61829;-80
2023/01/10 01:42:21;;;;;;;;;3.25;0.75;;;;;;;;5085679;27;61789;-79
2023/01/10 01:45:07;;;;;;;;;1.25;1.25;;;;;;;;5085588;27;61832;-80
2023/01/10 01:47:32;;;;;;;;;1.25;1.00;;;;;;;;5085489;27;62041;-80
2023/01/10 01:49:57;;;;;;;;;2.75;1.00;;;;;;;;5084611;27;61796;-79
2023/01/10 01:52:27;;;;;;;;;2.00;1.00;;;;;;;;5085417;28;61839;-80
2023/01/10 01:54:56;;;;;;;;;3.00;1.00;;;;;;;;5085167;27;62076;-80
2023/01/10 01:57:22;;;;;;;;;1.00;0.50;;;;;;;;5085806;27;62226;-80
2023/01/10 01:59:50;;;;;;;;;1.50;0.25;;;;;;;;5117333;27;65055;-80
2023/01/10 02:02:20;;;;;;;;;4.50;1.00;;;;;;;;5085355;27;62041;-80
2023/01/10 02:04:50;;;;;;;;;1.25;1.25;;;;;;;;5084033;28;61844;-80
2023/01/10 02:07:16;;;;;;;;;2.50;1.50;;;;;;;;5085497;27;61739;-80
2023/01/10 02:09:41;;;;;;;;;2.25;2.00;;;;;;;;5082728;28;65034;-80
2023/01/10 02:12:07;;;;;;;;;0.50;0.00;;;;;;;;5085120;28;61713;-79
2023/01/10 02:14:33;;;;;;;;;1.00;1.00;;;;;;;;5085137;27;61886;-79
2023/01/10 02:16:58;;;;;;;;;5.00;1.00;;;;;;;;5083904;28;62147;-80
2023/01/10 02:19:42;;;;;;;;;1.00;1.00;;;;;;;;5084301;28;61853;-79
2023/01/10 02:22:25;;;;;;;;;2.00;1.00;;;;;;;;5084952;28;61659;-80
2023/01/10 02:25:13;;;;;;;;;0.50;0.50;;;;;;;;5084876;27;61743;-80
2023/01/10 02:27:47;;;;;;;;;1.00;0.00;;;;;;;;5083033;28;62153;-80
2023/01/10 02:30:15;;;;;;;;;4.00;0.75;;;;;;;;5084241;28;61899;-79
2023/01/10 02:33:04;;;;;;;;;3.50;1.00;;;;;;;;5084793;27;61836;-80
2023/01/10 02:35:41;;;;;;;;;0.75;0.00;;;;;;;;5061854;28;61853;-79
2023/01/10 02:38:13;;;;;;;;;0.00;0.00;;;;;;;;5061816;28;62055;-79
2023/01/10 02:40:46;;;;;;;;;2.00;1.00;;;;;;;;5061697;28;61868;-80
2023/01/10 02:43:14;;;;;;;;;0.50;0.50;;;;;;;;5045039;28;62279;-79
2023/01/10 02:45:57;;;;;;;;;3.50;1.00;;;;;;;;5062201;28;61784;-80
2023/01/10 02:48:23;;;;;;;;;5.00;0.00;;;;;;;;5062217;28;61808;-80
2023/01/10 02:50:53;;;;;;;;;1.75;0.25;;;;;;;;5061058;28;62724;-80
2023/01/10 02:53:18;;;;;;;;;5.00;2.00;;;;;;;;5061635;28;62011;-80
2023/01/10 02:55:58;;;;;;;;;1.25;1.00;;;;;;;;5061883;28;62314;-80
2023/01/10 02:58:44;;;;;;;;;2.00;0.00;;;;;;;;5061809;28;61978;-79
2023/01/10 03:01:21;;;;;;;;;1.25;1.00;;;;;;;;5060252;28;62753;-80
2023/01/10 03:04:03;;;;;;;;;1.00;1.00;;;;;;;;5061749;28;61937;-80
2023/01/10 03:06:29;;;;;;;;;4.00;1.50;;;;;;;;5044448;28;61810;-79
2023/01/10 03:09:20;;;;;;;;;5.00;1.00;;;;;;;;5061529;28;61952;-79
2023/01/10 03:11:46;;;;;;;;;0.25;0.25;;;;;;;;5060808;28;63927;-80
2023/01/10 03:14:15;;;;;;;;;5.00;1.00;;;;;;;;5082481;28;61737;-79
2023/01/10 03:16:42;;;;;;;;;3.00;1.00;;;;;;;;5084215;27;61887;-80
2023/01/10 03:19:19;;;;;;;;;2.50;0.00;;;;;;;;5082769;28;61932;-80
2023/01/10 03:21:46;;;;;;;;;2.75;1.00;;;;;;;;5082066;28;63763;-79
2023/01/10 03:24:22;;;;;;;;;0.00;0.00;;;;;;;;5082380;28;62433;-80
2023/01/10 03:26:54;;;;;;;;;2.50;0.75;;;;;;;;5082621;27;62086;-80
2023/01/10 03:29:49;;;;;;;;;2.00;1.00;;;;;;;;5084091;27;61734;-80
2023/01/10 03:32:16;;;;;;;;;1.75;1.00;;;;;;;;5078058;27;62056;-80
2023/01/10 03:34:41;;;;;;;;;1.00;1.00;;;;;;;;5083963;27;61757;-80
2023/01/10 03:37:15;;;;;;;;;1.50;1.25;;;;;;;;5083134;27;61804;-80
2023/01/10 03:39:49;;;;;;;;;1.00;0.00;;;;;;;;5082627;28;62093;-79
2023/01/10 03:42:20;;;;;;;;;2.75;0.50;;;;;;;;5081751;28;65108;-80
2023/01/10 03:44:45;;;;;;;;;5.00;2.00;;;;;;;;5082328;28;61875;-80
2023/01/10 03:47:26;;;;;;;;;1.00;1.00;;;;;;;;5083727;28;61899;-80
2023/01/10 03:50:10;;;;;;;;;0.75;0.75;;;;;;;;5083570;27;61649;-80
2023/01/10 03:52:38;;;;;;;;;2.00;0.00;;;;;;;;5083044;27;63035;-79
2023/01/10 03:55:04;;;;;;;;;3.00;1.00;;;;;;;;5083407;27;61653;-80
2023/01/10 03:57:29;;;;;;;;;1.00;1.00;;;;;;;;5083678;27;61676;-80
2023/01/10 03:59:57;;;;;;;;;1.00;1.00;;;;;;;;5082521;28;61940;-79
2023/01/10 04:02:26;;;;;;;;;1.00;1.00;;;;;;;;5082690;28;62022;-79
2023/01/10 04:04:51;;;;;;;;;1.00;1.00;;;;;;;;5083016;28;61947;-80
2023/01/10 04:07:16;;;;;;;;;1.75;0.00;;;;;;;;5082031;28;61847;-79
2023/01/10 04:09:42;;;;;;;;;0.00;0.00;;;;;;;;5082100;28;61849;-79
2023/01/10 04:12:07;;;;;;;;;2.00;1.00;;;;;;;;5082654;28;62593;-80
2023/01/10 04:14:32;;;;;;;;;0.00;0.00;;;;;;;;5081801;28;61880;-79
2023/01/10 04:16:58;;;;;;;;;3.00;1.00;;;;;;;;5081889;28;62074;-79
2023/01/10 04:19:23;;;;;;;;;1.00;1.00;;;;;;;;5082855;27;61873;-79
2023/01/10 04:21:49;;;;;;;;;6.75;1.75;;;;;;;;5081364;28;64935;-79
2023/01/10 04:24:14;;;;;;;;;1.00;0.00;;;;;;;;5083226;28;61829;-79
2023/01/10 04:26:39;;;;;;;;;0.00;0.00;;;;;;;;5094087;27;61784;-80
2023/01/10 04:29:05;;;;;;;;;7.00;2.00;;;;;;;;5102242;27;61839;-80
2023/01/10 04:31:30;;;;;;;;;0.75;0.75;;;;;;;;5101497;27;63665;-80
2023/01/10 04:33:56;;;;;;;;;2.00;1.00;;;;;;;;5103296;27;61837;-80
2023/01/10 04:36:21;;;;;;;;;2.00;0.00;;;;;;;;5101901;27;61967;-79
2023/01/10 04:38:46;;;;;;;;;2.00;1.00;;;;;;;;5103753;27;61822;-80
2023/01/10 04:41:11;;;;;;;;;5.25;0.25;;;;;;;;5101525;27;63713;-80
2023/01/10 04:43:37;;;;;;;;;4.50;1.00;;;;;;;;5101597;27;61844;-79
2023/01/10 04:46:02;;;;;;;;;2.00;1.00;;;;;;;;5103504;27;62098;-79
2023/01/10 04:48:28;;;;;;;;;1.50;0.75;;;;;;;;5100884;27;61885;-80
2023/01/10 04:50:53;;;;;;;;;1.25;0.50;;;;;;;;5101957;27;62760;-80
2023/01/10 04:53:19;;;;;;;;;2.00;1.00;;;;;;;;5103289;27;61918;-80
2023/01/10 04:55:45;;;;;;;;;0.25;0.25;;;;;;;;5101986;27;61941;-79
2023/01/10 04:58:11;;;;;;;;;3.00;1.75;;;;;;;;5101991;27;61872;-80
2023/01/10 05:00:36;;;;;;;;;2.75;1.00;;;;;;;;5102432;27;62175;-79
2023/01/10 05:03:02;;;;;;;;;4.00;0.50;;;;;;;;5102822;27;61800;-79
2023/01/10 05:05:27;;;;;;;;;0.50;0.00;;;;;;;;5101305;27;61744;-79
2023/01/10 05:07:53;;;;;;;;;1.50;0.50;;;;;;;;5103261;27;61777;-80
2023/01/10 05:10:18;;;;;;;;;0.00;0.00;;;;;;;;5102241;27;62752;-80
2023/01/10 05:12:44;;;;;;;;;0.75;0.75;;;;;;;;5103026;27;61825;-80
2023/01/10 05:15:09;;;;;;;;;2.00;0.00;;;;;;;;5101495;27;62125;-79
2023/01/10 05:17:35;;;;;;;;;1.00;1.00;;;;;;;;5101401;27;61769;-79
2023/01/10 05:20:00;;;;;;;;;1.50;1.00;;;;;;;;5101994;27;61769;-79
2023/01/10 05:22:25;;;;;;;;;1.00;1.00;;;;;;;;5101375;27;61818;-80
2023/01/10 05:24:51;;;;;;;;;1.25;0.00;;;;;;;;5102873;27;61942;-80
2023/01/10 05:27:16;;;;;;;;;1.00;1.00;;;;;;;;5085228;27;61847;-80
2023/01/10 05:29:41;;;;;;;;;1.00;0.00;;;;;;;;5080206;28;64849;-79
2023/01/10 05:32:07;;;;;;;;;6.25;3.50;;;;;;;;5080549;28;61979;-80
2023/01/10 05:34:32;;;;;;;;;2.00;1.00;;;;;;;;5082128;28;61693;-80
2023/01/10 05:36:57;;;;;;;;;2.50;1.00;;;;;;;;5082365;28;61916;-80
2023/01/10 05:39:22;;;;;;;;;4.00;1.00;;;;;;;;5081526;28;61877;-80
2023/01/10 05:41:48;;;;;;;;;7.00;1.00;;;;;;;;5082019;28;61864;-82
2023/01/10 05:44:13;;;;;;;;;7.25;2.00;;;;;;;;5082104;28;61737;-80
2023/01/10 05:46:38;;;;;;;;;2.25;1.00;;;;;;;;5081919;28;62041;-80
2023/01/10 05:49:03;;;;;;;;;5.00;1.25;;;;;;;;5081271;28;62031;-80
2023/01/10 05:51:33;;;;;;;;;1.75;1.00;;;;;;;;5080566;28;62112;-80
2023/01/10 05:54:03;;;;;;;;;6.00;2.00;;;;;;;;5082170;27;62066;-79
2023/01/10 05:56:29;;;;;;;;;2.00;0.00;;;;;;;;5082228;27;62183;-79
2023/01/10 05:58:54;;;;;;;;;0.00;0.00;;;;;;;;5081199;28;62790;-79
2023/01/10 06:01:19;;;;;;;;;1.50;1.50;;;;;;;;5084166;27;61984;-79
2023/01/10 06:03:45;;;;;;;;;2.50;1.25;;;;;;;;5085132;27;62126;-80
2023/01/10 06:06:10;;;;;;;;;5.00;1.00;;;;;;;;5085428;28;61838;-80
2023/01/10 06:08:39;;;;;;;;;2.00;1.00;;;;;;;;5082995;28;63859;-83
2023/01/10 06:11:05;;;;;;;;;1.00;1.00;;;;;;;;5084831;27;61869;-81
2023/01/10 06:13:30;;;;;;;;;1.25;1.25;;;;;;;;5084998;27;61981;-80
2023/01/10 06:15:55;;;;;;;;;3.25;1.00;;;;;;;;5083808;28;62078;-80
2023/01/10 06:18:21;;;;;;;;;2.50;0.00;;;;;;;;5084466;28;61888;-80
2023/01/10 06:20:46;;;;;;;;;6.50;1.00;;;;;;;;5083162;28;61740;-81
2023/01/10 06:23:11;;;;;;;;;5.75;0.75;;;;;;;;5086242;27;61718;-81
2023/01/10 06:25:39;;;;;;;;;3.00;1.00;;;;;;;;5082976;27;61891;-82
2023/01/10 06:28:04;;;;;;;;;8.75;1.00;;;;;;;;5084242;27;61945;-80
2023/01/10 06:30:30;;;;;;;;;2.50;1.25;;;;;;;;5083043;28;61821;-82
2023/01/10 06:32:59;;;;;;;;;2.00;0.00;;;;;;;;5084754;28;61757;-81
2023/01/10 06:35:24;;;;;;;;;1.75;1.75;;;;;;;;5084957;27;61817;-81
2023/01/10 06:37:50;;;;;;;;;1.00;0.50;;;;;;;;5083097;28;61929;-82
2023/01/10 06:40:15;;;;;;;;;1.00;1.00;;;;;;;;5084362;27;61855;-82
2023/01/10 06:42:41;;;;;;;;;8.75;2.00;;;;;;;;5083939;28;62300;-80
2023/01/10 06:45:06;;;;;;;;;2.25;2.00;;;;;;;;5081799;28;61766;-80
2023/01/10 06:47:34;;;;;;;;;2.25;1.00;;;;;;;;5082953;27;62423;-80
2023/01/10 06:50:00;;;;;;;;;1.75;1.75;;;;;;;;5062196;28;61837;-80
2023/01/10 06:52:25;;;;;;;;;4.25;2.00;;;;;;;;5067221;28;61755;-80
2023/01/10 06:54:51;;;;;;;;;2.00;1.00;;;;;;;;5084186;28;62226;-84
2023/01/10 06:57:17;;;;;;;;;3.00;1.25;;;;;;;;5082822;28;64149;-83
2023/01/10 06:59:42;;;;;;;;;1.50;1.50;;;;;;;;5082590;28;62006;-84
2023/01/10 07:02:09;;;;;;;;;2.00;1.00;;;;;;;;5083082;28;61991;-84
2023/01/10 07:04:34;;;;;;;;;6.00;3.50;;;;;;;;5084593;27;61769;-84
2023/01/10 07:06:59;;;;;;;;;2.00;1.00;;;;;;;;5081895;28;64745;-84
2023/01/10 07:09:24;;;;;;;;;1.75;1.00;;;;;;;;5082630;27;61834;-85
2023/01/10 07:11:50;;;;;;;;;5.00;1.00;;;;;;;;5083434;28;61839;-84
2023/01/10 07:14:15;;;;;;;;;1.00;1.00;;;;;;;;5082755;28;62584;-84
2023/01/10 07:16:40;;;;;;;;;1.75;1.00;;;;;;;;5083523;28;61940;-84
2023/01/10 07:19:05;;;;;;;;;3.50;2.25;;;;;;;;5083609;28;61925;-85
2023/01/10 07:21:31;;;;;;;;;2.50;1.00;;;;;;;;5083005;27;61868;-85
2023/01/10 07:23:56;;;;;;;;;1.50;1.00;;;;;;;;5084099;28;61919;-85
2023/01/10 07:26:23;;;;;;;;;1.00;1.00;;;;;;;;5082040;27;64813;-85
2023/01/10 07:28:51;;;;;;;;;2.50;1.00;;;;;;;;5082639;28;61928;-85
2023/01/10 07:31:17;;;;;;;;;3.00;1.25;;;;;;;;5074665;28;62220;-85
2023/01/10 07:33:43;;;;;;;;;3.00;0.00;;;;;;;;5067633;28;62101;-85
2023/01/10 07:36:08;;;;;;;;;1.75;1.50;;;;;;;;5081847;28;63760;-85
2023/01/10 07:38:33;;;;;;;;;7.00;1.75;;;;;;;;5081235;27;61849;-85
2023/01/10 07:41:02;;;;;;;;;2.00;2.00;;;;;;;;5082436;28;62241;-86
2023/01/10 07:43:28;;;;;;;;;1.25;1.25;;;;;;;;5083756;27;61817;-85
2023/01/10 07:45:53;;;;;;;;;1.75;1.50;;;;;;;;5081747;28;63508;-86
2023/01/10 07:48:18;;;;;;;;;1.00;1.00;;;;;;;;5083563;28;61785;-85
2023/01/10 07:50:44;;;;;;;;;1.00;1.00;;;;;;;;5083469;27;62344;-84
2023/01/10 07:53:09;;;;;;;;;1.00;1.00;;;;;;;;5083214;27;61955;-84
2023/01/10 07:55:37;;;;;;;;;1.25;1.25;;;;;;;;5080417;28;63673;-84
2023/01/10 07:58:03;;;;;;;;;3.00;1.00;;;;;;;;5082559;27;61758;-83
2023/01/10 08:00:28;;;;;;;;;1.50;1.00;;;;;;;;5083481;27;61984;-83
2023/01/10 08:02:54;;;;;;;;;4.50;1.25;;;;;;;;5082048;28;62089;-85
2023/01/10 08:05:20;;;;;;;;;3.00;2.00;;;;;;;;5081305;28;64671;-84
2023/01/10 08:07:45;;;;;;;;;3.00;1.00;;;;;;;;5081847;28;61923;-84
2023/01/10 08:10:10;;;;;;;;;5.25;1.00;;;;;;;;5081019;28;61964;-84
2023/01/10 08:12:36;;;;;;;;;3.25;2.00;;;;;;;;5082703;27;61827;-84
2023/01/10 08:15:01;;;;;;;;;2.50;1.00;;;;;;;;5080547;28;64703;-83
2023/01/10 08:17:26;;;;;;;;;4.75;1.00;;;;;;;;5082620;28;61747;-85
2023/01/10 08:19:52;;;;;;;;;2.00;1.00;;;;;;;;5082339;28;61798;-84
2023/01/10 08:22:17;;;;;;;;;6.00;2.00;;;;;;;;5081200;28;61739;-85
2023/01/10 08:24:42;;;;;;;;;5.75;2.00;;;;;;;;5080530;28;64547;-84
2023/01/10 08:27:07;;;;;;;;;0.75;0.50;;;;;;;;5082838;27;61931;-83
2023/01/10 08:29:33;;;;;;;;;2.00;0.75;;;;;;;;5078224;28;61886;-83
2023/01/10 08:31:59;;;;;;;;;1.25;1.25;;;;;;;;5082715;27;61951;-84
2023/01/10 08:34:24;;;;;;;;;4.25;1.00;;;;;;;;5082008;28;61746;-83
2023/01/10 08:36:50;;;;;;;;;6.50;1.75;;;;;;;;5082847;28;61792;-85
2023/01/10 08:39:16;;;;;;;;;2.75;1.25;;;;;;;;5082839;27;62090;-85
2023/01/10 08:41:41;;;;;;;;;2.00;1.00;;;;;;;;5082997;27;62063;-82
2023/01/10 08:44:10;;;;;;;;;3.50;1.00;;;;;;;;5080323;28;63551;-84
2023/01/10 08:46:36;;;;;;;;;1.75;1.25;;;;;;;;5081425;28;62890;-84
2023/01/10 08:49:01;;;;;;;;;2.75;1.00;;;;;;;;5082690;27;62560;-84
2023/01/10 08:51:26;;;;;;;;;2.25;2.25;;;;;;;;5082229;28;61706;-85
2023/01/10 08:53:51;;;;;;;;;6.25;1.50;;;;;;;;5080395;28;63756;-78
2023/01/10 08:56:17;;;;;;;;;3.50;1.50;;;;;;;;5081167;28;61847;-86
2023/01/10 08:58:42;;;;;;;;;3.25;1.75;;;;;;;;5080725;28;62453;-79
2023/01/10 09:01:08;;;;;;;;;3.75;1.00;;;;;;;;5082452;27;62000;-84
2023/01/10 09:03:45;;;;;;;;;7.00;2.75;;;;;;;;5081365;27;61787;-81
2023/01/10 09:06:10;;;;;;;;;5.25;1.75;;;;;;;;5103995;27;62415;-81
2023/01/10 09:08:36;;;;;;;;;1.75;1.75;;;;;;;;5080626;28;61820;-83
2023/01/10 09:11:01;;;;;;;;;7.25;2.75;;;;;;;;5081212;28;62220;-77
2023/01/10 09:13:28;;;;;;;;;4.00;3.00;;;;;;;;5080745;28;62248;-83
2023/01/10 09:15:53;;;;;;;;;2.50;1.00;;;;;;;;5081798;27;62149;-82
2023/01/10 09:18:18;;;;;;;;;3.25;2.75;;;;;;;;5080470;28;61793;-78
2023/01/10 09:20:53;;;;;;;;;2.50;0.25;;;;;;;;5082087;28;62039;-83
2023/01/10 09:23:19;;;;;;;;;2.00;2.00;;;;;;;;5080086;28;64251;-81
2023/01/10 09:25:46;;;;;;;;;4.25;1.00;;;;;;;;5081378;27;62121;-82
2023/01/10 09:28:12;;;;;;;;;4.25;3.00;;;;;;;;5081904;27;61972;-81
2023/01/10 09:30:37;;;;;;;;;5.50;3.50;;;;;;;;5082649;27;62281;-82
2023/01/10 09:33:06;;;;;;;;;2.50;1.50;;;;;;;;5079421;27;63956;-85
2023/01/10 09:35:33;;;;;;;;;2.75;2.00;;;;;;;;5081409;28;61846;-84
2023/01/10 09:38:00;;;;;;;;;3.25;2.25;;;;;;;;5085258;27;61816;-84
2023/01/10 09:40:28;;;;;;;;;6.00;2.00;;;;;;;;5084618;28;61740;-84
2023/01/10 09:42:56;;;;;;;;;3.00;3.00;;;;;;;;5083579;28;64778;-80
2023/01/10 09:45:37;;;;;;;;;2.00;2.00;;;;;;;;5085230;27;61794;-86
2023/01/10 09:48:03;;;;;;;;;3.25;0.50;;;;;;;;5085767;27;62226;-85
2023/01/10 09:50:28;;;;;;;;;2.00;2.00;;;;;;;;5085401;27;62067;-85
2023/01/10 09:53:03;;;;;;;;;3.00;1.25;;;;;;;;5090563;28;62548;-84
2023/01/10 09:55:28;;;;;;;;;3.75;1.00;;;;;;;;5063655;28;61936;-85
2023/01/10 09:57:54;;;;;;;;;3.00;2.50;;;;;;;;5083600;28;61842;-88
2023/01/10 10:00:23;;;;;;;;;3.00;2.00;;;;;;;;5085344;28;61802;-85
2023/01/10 10:02:51;;;;;;;;;8.50;2.00;;;;;;;;5084985;27;62022;-85
2023/01/10 10:05:24;;;;;;;;;2.75;2.75;;;;;;;;5083409;28;61903;-85
2023/01/10 10:08:01;;;;;;;;;4.75;2.50;;;;;;;;5084787;28;61721;-85
2023/01/10 10:10:33;;;;;;;;;3.25;3.25;;;;;;;;5083827;28;61663;-80
2023/01/10 10:13:10;;;;;;;;;4.50;2.75;;;;;;;;5084534;28;61981;-84
2023/01/10 10:15:36;;;;;;;;;3.00;3.00;;;;;;;;5083068;28;61780;-80
2023/01/10 10:18:11;;;;;;;;;1.00;1.00;;;;;;;;5082822;28;61831;-84
2023/01/10 10:20:57;;;;;;;;;6.00;2.00;;;;;;;;5082871;28;62191;-80
2023/01/10 10:23:25;;;;;;;;;2.00;2.00;;;;;;;;5083434;28;63062;-78
2023/01/10 10:26:11;;;;;;;;;6.75;2.25;;;;;;;;5083180;27;61990;-84
2023/01/10 10:28:45;;;;;;;;;6.50;3.00;;;;;;;;5085717;27;61839;-84
2023/01/10 10:31:10;;;;;;;;;3.50;1.50;;;;;;;;5085378;27;62033;-84
2023/01/10 10:33:55;;;;;;;;;3.25;1.00;;;;;;;;5082512;28;63768;-82
2023/01/10 10:36:23;;;;;;;;;6.75;4.50;;;;;;;;5084508;27;61805;-82
2023/01/10 10:38:50;;;;;;;;;6.25;3.00;;;;;;;;5083273;28;61761;-83
2023/01/10 10:41:33;;;;;;;;;2.25;2.25;;;;;;;;5083759;28;62067;-83
2023/01/10 10:44:03;;;;;;;;;2.00;2.00;;;;;;;;5082171;28;64049;-82
2023/01/10 10:46:29;;;;;;;;;4.25;1.00;;;;;;;;5083760;27;61907;-83
2023/01/10 10:48:59;;;;;;;;;2.00;2.00;;;;;;;;5083812;27;61796;-84
2023/01/10 10:51:47;;;;;;;;;5.00;3.75;;;;;;;;5083282;28;62022;-83
2023/01/10 10:54:13;;;;;;;;;6.75;2.75;;;;;;;;5083887;27;62679;-84
2023/01/10 10:56:39;;;;;;;;;2.00;2.00;;;;;;;;5083252;28;61848;-84
2023/01/10 10:59:05;;;;;;;;;8.25;3.00;;;;;;;;5084591;27;61880;-84
2023/01/10 11:01:31;;;;;;;;;7.50;3.00;;;;;;;;5082616;28;62146;-84
2023/01/10 11:04:23;;;;;;;;;1.00;1.00;;;;;;;;5081902;28;63346;-80
2023/01/10 11:06:49;;;;;;;;;8.00;3.25;;;;;;;;5080451;27;61774;-83
2023/01/10 11:09:36;;;;;;;;;6.25;5.00;;;;;;;;5082985;28;61837;-84
2023/01/10 11:12:02;;;;;;;;;3.00;2.00;;;;;;;;5082803;28;62052;-84
2023/01/10 11:15:00;;;;;;;;;4.00;2.00;;;;;;;;5083703;27;62759;-79
2023/01/10 11:17:29;;;;;;;;;7.00;2.25;;;;;;;;5040622;28;62050;-79
2023/01/10 11:19:59;;;;;;;;;1.00;1.00;;;;;;;;5057494;28;61861;-80
2023/01/10 11:22:26;;;;;;;;;3.75;1.50;;;;;;;;5058391;28;62142;-81
2023/01/10 11:24:55;;;;;;;;;5.50;1.00;;;;;;;;5022771;28;63783;-82
2023/01/10 11:27:22;;;;;;;;;3.50;2.00;;;;;;;;5051674;28;61892;-81
2023/01/10 11:29:49;;;;;;;;;2.50;1.50;;;;;;;;5040167;28;61993;-81
2023/01/10 11:32:16;;;;;;;;;1.50;1.25;;;;;;;;5040366;28;62580;-82
2023/01/10 11:34:47;;;;;;;;;2.00;2.00;;;;;;;;5039591;28;61924;-81
2023/01/10 11:37:16;;;;;;;;;3.00;1.00;;;;;;;;5040997;28;61922;-81
2023/01/10 11:39:41;;;;;;;;;0.75;0.75;;;;;;;;5041072;28;61980;-82
2023/01/10 11:42:28;;;;;;;;;1.00;0.25;;;;;;;;5023249;28;62223;-81
2023/01/10 11:44:54;;;;;;;;;3.00;1.00;;;;;;;;5047970;28;64486;-82
2023/01/10 11:47:19;;;;;;;;;5.00;2.00;;;;;;;;5048721;28;63190;-82
2023/01/10 11:49:46;;;;;;;;;5.25;1.25;;;;;;;;5039803;28;61988;-81
2023/01/10 11:52:17;;;;;;;;;0.75;0.75;;;;;;;;5046973;28;62406;-81
2023/01/10 11:54:43;;;;;;;;;2.00;1.75;;;;;;;;5083111;28;61786;-82
2023/01/10 11:57:23;;;;;;;;;4.00;1.25;;;;;;;;5082110;27;62085;-79
2023/01/10 11:59:52;;;;;;;;;6.50;0.50;;;;;;;;5081316;28;61856;-78
2023/01/10 12:02:25;;;;;;;;;5.00;1.00;;;;;;;;5078142;28;62132;-79
2023/01/10 12:04:52;;;;;;;;;4.75;1.00;;;;;;;;5081401;28;65123;-79
2023/01/10 12:07:21;;;;;;;;;1.00;1.00;;;;;;;;5083287;27;62035;-79
2023/01/10 12:10:05;;;;;;;;;3.00;1.00;;;;;;;;5083197;28;61839;-79
2023/01/10 12:12:33;;;;;;;;;1.00;1.00;;;;;;;;5082110;28;62196;-79
2023/01/10 12:14:59;;;;;;;;;7.25;1.75;;;;;;;;5082293;27;61879;-79
2023/01/10 12:17:26;;;;;;;;;1.50;1.00;;;;;;;;5081695;28;61698;-79
2023/01/10 12:19:54;;;;;;;;;2.75;1.00;;;;;;;;5081486;28;61762;-79
2023/01/10 12:22:23;;;;;;;;;1.00;1.00;;;;;;;;5082927;27;61703;-79
2023/01/10 12:24:49;;;;;;;;;2.75;1.25;;;;;;;;5080792;28;63980;-79
2023/01/10 12:27:16;;;;;;;;;1.00;1.00;;;;;;;;5082369;27;61773;-79
2023/01/10 12:29:46;;;;;;;;;3.25;1.00;;;;;;;;5083022;27;61979;-79
2023/01/10 12:32:16;;;;;;;;;1.00;1.00;;;;;;;;5077890;27;61876;-79
2023/01/10 12:34:48;;;;;;;;;1.50;1.00;;;;;;;;5062399;28;61807;-79
2023/01/10 12:37:29;;;;;;;;;1.50;1.50;;;;;;;;5069583;28;61992;-79
2023/01/10 12:39:58;;;;;;;;;9.25;1.00;;;;;;;;5080474;28;61859;-79
2023/01/10 12:45:11;;;;;;;;;1.00;0.00;;;;;;;;5081154;28;61724;-79
2023/01/10 12:47:52;;;;;;;;;2.25;2.25;;;;;;;;5082015;27;61924;-78
2023/01/10 12:50:36;;;;;;;;;1.00;1.00;;;;;;;;5080178;28;62003;-79
2023/01/10 12:53:20;;;;;;;;;1.00;1.00;;;;;;;;5081197;28;62290;-79
2023/01/10 12:55:45;;;;;;;;;1.00;1.00;;;;;;;;5080710;28;61936;-79
2023/01/10 12:58:20;;;;;;;;;0.25;0.25;;;;;;;;5080402;28;62012;-78
2023/01/10 13:00:48;;;;;;;;;4.00;3.00;;;;;;;;5080558;28;61800;-78
2023/01/10 13:03:25;;;;;;;;;2.50;2.00;;;;;;;;5082677;27;61926;-79
2023/01/10 13:05:51;;;;;;;;;2.00;0.00;;;;;;;;5080563;28;65241;-80
2023/01/10 13:08:20;;;;;;;;;0.00;0.00;;;;;;;;5082517;27;61907;-82
2023/01/10 13:10:47;;;;;;;;;0.00;0.00;;;;;;;;5083561;27;62106;-80
2023/01/10 13:13:15;;;;;;;;;1.50;1.50;;;;;;;;5083314;28;61789;-81
2023/01/10 13:15:48;;;;;;;;;3.00;2.00;;;;;;;;5083070;28;63963;-81
2023/01/10 13:18:33;;;;;;;;;0.00;0.00;;;;;;;;5084547;28;61959;-80
2023/01/10 13:21:07;;;;;;;;;0.00;0.00;;;;;;;;5084280;28;61967;-85
2023/01/10 13:23:35;;;;;;;;;0.25;0.00;;;;;;;;5084817;28;62080;-82
2023/01/10 13:26:04;;;;;;;;;0.25;0.25;;;;;;;;5085057;27;62940;-84
2023/01/10 13:28:31;;;;;;;;;0.75;0.75;;;;;;;;5085813;27;61866;-82
2023/01/10 13:30:59;;;;;;;;;2.00;2.00;;;;;;;;5085082;28;62165;-83
2023/01/10 13:33:26;;;;;;;;;0.75;0.75;;;;;;;;5085688;27;61838;-82
2023/01/10 13:35:53;;;;;;;;;3.00;0.50;;;;;;;;5085108;27;63321;-81
2023/01/10 13:38:25;;;;;;;;;1.75;1.00;;;;;;;;5085826;28;62332;-83
2023/01/10 13:41:02;;;;;;;;;3.50;1.00;;;;;;;;5118923;27;61966;-81
2023/01/10 13:43:35;;;;;;;;;0.00;0.00;;;;;;;;5082723;28;61775;-82
2023/01/10 13:46:15;;;;;;;;;3.00;1.00;;;;;;;;5084113;27;62132;-82
2023/01/10 13:48:41;;;;;;;;;46.75;41.25;;;;;;;;5082753;28;61971;-82
2023/01/10 13:51:12;;;;;;;;;5.00;5.00;;;;;;;;5085735;27;61803;-84
2023/01/10 13:53:43;;;;;;;;;9.50;7.75;;;;;;;;5084734;28;62019;-77
2023/01/10 13:56:26;;;;;;;;;7.50;6.25;;;;;;;;5084101;27;61810;-76
2023/01/10 14:04:41;;;;;;;;;3.75;2.50;;;;;;;;5085490;28;61837;-83
2023/01/10 14:07:25;;;;;;;;;1.00;1.00;;;;;;;;5076406;28;62635;-83
2023/01/10 14:09:52;;;;;;;;;0.75;0.75;;;;;;;;5083724;28;61844;-81
2023/01/10 14:12:22;;;;;;;;;1.00;1.00;;;;;;;;5085393;27;62004;-80
2023/01/10 14:14:59;;;;;;;;;1.75;0.00;;;;;;;;5083669;28;62146;-81
2023/01/10 14:17:29;;;;;;;;;2.00;0.00;;;;;;;;5084817;28;62612;-81
2023/01/10 14:20:05;;;;;;;;;1.75;0.75;;;;;;;;5083567;28;61815;-82
2023/01/10 14:22:32;;;;;;;;;1.00;1.00;;;;;;;;5083598;28;61828;-78
2023/01/10 14:25:02;;;;;;;;;0.00;0.00;;;;;;;;5083876;28;61758;-80
2023/01/10 14:27:37;;;;;;;;;2.00;2.00;;;;;;;;5082426;27;63846;-79
2023/01/10 14:30:04;;;;;;;;;6.50;4.50;;;;;;;;5084316;27;62102;-79
2023/01/10 14:32:37;;;;;;;;;4.00;2.75;;;;;;;;5084609;27;61936;-84
2023/01/10 14:35:05;;;;;;;;;4.00;4.00;;;;;;;;5085106;27;61923;-78
2023/01/10 14:37:40;;;;;;;;;5.50;4.00;;;;;;;;5083433;27;62563;-85
2023/01/10 14:40:14;;;;;;;;;4.50;3.00;;;;;;;;5083390;28;62277;-82
2023/01/10 14:42:39;;;;;;;;;8.50;5.25;;;;;;;;5083499;27;61884;-81
2023/01/10 14:45:16;;;;;;;;;3.25;2.00;;;;;;;;5083993;27;61744;-81
2023/01/10 14:47:41;;;;;;;;;3.50;2.50;;;;;;;;5080498;28;63630;-81
2023/01/10 14:50:21;;;;;;;;;0.75;0.75;;;;;;;;5081333;28;61923;-81
2023/01/10 14:52:46;;;;;;;;;1.00;1.00;;;;;;;;5080751;28;62124;-81
2023/01/10 14:55:15;;;;;;;;;2.50;2.50;;;;;;;;5083377;28;61908;-81
2023/01/10 14:57:51;;;;;;;;;1.00;1.00;;;;;;;;5080694;28;65315;-81
2023/01/10 15:00:19;;;;;;;;;1.00;1.00;;;;;;;;5106685;27;61825;-83
2023/01/10 15:02:44;;;;;;;;;1.00;0.50;;;;;;;;5082169;27;61859;-82
2023/01/10 15:05:26;;;;;;;;;4.00;3.00;;;;;;;;5082654;27;62039;-83
2023/01/10 15:07:52;;;;;;;;;2.00;0.00;;;;;;;;5081985;27;62009;-82